Time,TemperatureF,DewpointF,PressureIn,WindDirection,WindDirectionDegrees,WindSpeedMPH,WindSpeedGustMPH,Humidity,HourlyPrecipIn,Conditions,Clouds,dailyrainin,SoftwareType,DateUTC
2013-12-04 00:00:00,53.2,52.4,29.46,ESE,115,0.0,3.0,97,0.00,,CLR,0.00,VWS V14.01,2013-12-04 06:00:00,
2013-12-04 00:01:00,53.2,52.4,29.46,SE,132,1.0,1.0,97,0.00,,,0.00,VWS V14.01,2013-12-04 06:01:00,
2013-12-04 00:06:00,53.2,52.4,29.46,SE,132,0.0,1.0,97,0.00,,,0.00,VWS V14.01,2013-12-04 06:06:00,
2013-12-04 00:11:00,53.2,52.4,29.46,SE,125,0.0,1.0,97,0.00,,,0.00,VWS V14.01,2013-12-04 06:11:00,
2013-12-04 00:16:00,53.2,52.4,29.46,ESE,115,0.0,2.0,97,0.00,,,0.00,VWS V14.01,2013-12-04 06:16:00,
2013-12-04 00:21:00,53.2,52.4,29.46,ESE,122,1.0,2.0,97,0.00,,,0.00,VWS V14.01,2013-12-04 06:21:00,
2013-12-04 00:26:00,53.3,52.5,29.46,ESE,122,0.0,2.0,97,0.00,,,0.00,VWS V14.01,2013-12-04 06:26:00,
2013-12-04 00:30:00,53.3,52.5,29.45,ESE,122,0.0,2.0,97,0.00,,CLR,0.00,VWS V15.00,2013-12-04 06:30:00,
2013-12-04 00:31:00,53.3,52.5,29.45,ESE,122,0.0,1.0,97,0.00,,,0.00,VWS V14.01,2013-12-04 06:31:00,
2013-12-04 00:36:00,53.3,52.5,29.45,ESE,122,0.0,1.0,97,0.00,,,0.00,VWS V14.01,2013-12-04 06:36:00,
2013-12-04 00:41:00,53.3,52.5,29.45,ESE,122,0.0,1.0,97,0.00,,,0.00,VWS V14.01,2013-12-04 06:41:00,
2013-12-04 00:46:00,53.3,52.5,29.45,ESE,112,0.0,3.0,97,0.00,,,0.00,VWS V14.01,2013-12-04 06:46:00,
2013-12-04 00:51:00,53.2,52.4,29.46,ESE,112,0.0,3.0,97,0.00,,,0.00,VWS V14.01,2013-12-04 06:51:00,
2013-12-04 00:57:00,53.3,52.5,29.45,ESE,112,0.0,3.0,97,0.00,,,0.00,VWS V14.01,2013-12-04 06:57:00,
2013-12-04 01:00:00,53.2,52.4,29.45,ESE,112,0.0,3.0,97,0.00,,CLR,0.00,VWS V14.01,2013-12-04 07:00:00,
2013-12-04 01:02:00,53.2,52.4,29.45,ESE,113,2.0,2.0,97,0.00,,,0.00,VWS V14.01,2013-12-04 07:02:00,
2013-12-04 01:07:00,53.2,52.4,29.45,ESE,113,0.0,2.0,97,0.00,,,0.00,VWS V14.01,2013-12-04 07:07:00,
2013-12-04 01:12:00,53.2,52.4,29.45,SE,135,0.0,2.0,97,0.00,,,0.00,VWS V14.01,2013-12-04 07:12:00,
2013-12-04 01:17:00,53.2,52.4,29.45,SE,135,0.0,2.0,97,0.00,,,0.00,VWS V14.01,2013-12-04 07:17:00,
2013-12-04 01:22:00,53.2,52.4,29.45,SE,135,0.0,2.0,97,0.00,,,0.00,VWS V14.01,2013-12-04 07:22:00,
2013-12-04 01:27:00,53.2,52.4,29.46,SE,135,0.0,2.0,97,0.00,,,0.00,VWS V14.01,2013-12-04 07:27:00,
2013-12-04 01:30:00,53.2,52.4,29.46,SE,135,0.0,2.0,97,0.00,,CLR,0.00,VWS V14.01,2013-12-04 07:30:00,
2013-12-04 01:32:00,53.2,52.4,29.46,SE,135,0.0,1.0,97,0.00,,,0.00,VWS V14.01,2013-12-04 07:32:00,
2013-12-04 01:38:00,53.1,52.3,29.46,SE,135,0.0,2.0,97,0.00,,,0.00,VWS V14.01,2013-12-04 07:38:00,
2013-12-04 01:43:00,53.1,52.3,29.45,SE,144,0.0,2.0,97,0.00,,,0.00,VWS V14.01,2013-12-04 07:43:00,
2013-12-04 01:48:00,53.1,52.3,29.45,SSE,160,0.0,2.0,97,0.00,,,0.00,VWS V14.01,2013-12-04 07:48:00,
2013-12-04 01:53:00,53.0,52.2,29.45,SSE,160,0.0,2.0,97,0.00,,,0.00,VWS V14.01,2013-12-04 07:53:00,
2013-12-04 01:58:00,53.0,52.2,29.45,SE,146,0.0,2.0,97,0.00,,,0.00,VWS V14.01,2013-12-04 07:58:00,
2013-12-04 02:00:00,53.0,52.2,29.45,SE,146,0.0,2.0,97,0.00,,CLR,0.00,VWS V15.00,2013-12-04 08:00:00,
2013-12-04 02:03:00,53.0,52.2,29.44,SSE,160,0.0,2.0,97,0.00,,,0.00,VWS V14.01,2013-12-04 08:03:00,
2013-12-04 02:08:00,52.9,52.1,29.45,SSE,161,0.0,2.0,97,0.00,,,0.00,VWS V14.01,2013-12-04 08:08:00,
2013-12-04 02:13:00,52.8,52.0,29.44,SSE,156,0.0,2.0,97,0.00,,,0.00,VWS V14.01,2013-12-04 08:13:00,
2013-12-04 02:18:00,52.8,52.0,29.45,SE,130,0.0,2.0,97,0.00,,,0.00,VWS V14.01,2013-12-04 08:18:00,
2013-12-04 02:24:00,52.7,51.9,29.45,SE,130,0.0,2.0,97,0.00,,,0.00,VWS V14.01,2013-12-04 08:24:00,
2013-12-04 02:29:00,52.6,51.8,29.45,SE,130,0.0,2.0,97,0.00,,,0.00,VWS V14.01,2013-12-04 08:29:00,
2013-12-04 02:30:00,52.6,51.8,29.45,SE,130,0.0,2.0,97,0.00,,CLR,0.00,VWS V15.00,2013-12-04 08:30:00,
2013-12-04 02:34:00,52.6,51.8,29.45,SE,130,0.0,1.0,97,0.00,,,0.00,VWS V14.01,2013-12-04 08:34:00,
2013-12-04 02:39:00,52.5,51.7,29.44,SE,130,0.0,1.0,97,0.00,,,0.00,VWS V14.01,2013-12-04 08:39:00,
2013-12-04 02:44:00,52.4,51.6,29.44,SSE,157,1.0,1.0,97,0.00,,,0.00,VWS V14.01,2013-12-04 08:44:00,
2013-12-04 02:49:00,52.3,51.5,29.44,SSE,161,0.0,2.0,97,0.00,,,0.00,VWS V14.01,2013-12-04 08:49:00,
2013-12-04 02:54:00,52.3,51.5,29.43,SSE,157,0.0,2.0,97,0.00,,,0.00,VWS V14.01,2013-12-04 08:54:00,
2013-12-04 02:59:00,52.2,51.7,29.43,SSE,166,0.0,0.0,98,0.00,,,0.00,VWS V14.01,2013-12-04 08:59:00,
2013-12-04 03:00:00,52.2,51.4,29.43,SSE,166,0.0,2.0,97,0.00,,CLR,0.00,VWS V14.01,2013-12-04 09:00:00,
2013-12-04 03:05:00,52.2,51.7,29.43,SSE,166,0.0,1.0,98,0.00,,,0.00,VWS V14.01,2013-12-04 09:05:00,
2013-12-04 03:10:00,52.2,51.7,29.43,SSE,166,0.0,1.0,98,0.00,,,0.00,VWS V14.01,2013-12-04 09:10:00,
2013-12-04 03:15:00,52.2,51.7,29.43,SSE,166,0.0,2.0,98,0.00,,,0.00,VWS V14.01,2013-12-04 09:15:00,
2013-12-04 03:20:00,52.2,51.7,29.43,SSE,161,0.0,2.0,98,0.00,,,0.00,VWS V14.01,2013-12-04 09:20:00,
2013-12-04 03:25:00,52.2,51.7,29.43,SSE,161,0.0,2.0,98,0.00,,,0.00,VWS V14.01,2013-12-04 09:25:00,
2013-12-04 03:30:00,52.2,51.7,29.43,SSE,161,0.0,1.0,98,0.00,,,0.00,VWS V14.01,2013-12-04 09:30:00,
2013-12-04 03:35:00,52.2,51.7,29.43,SSE,161,0.0,2.0,98,0.00,,,0.00,VWS V14.01,2013-12-04 09:35:00,
2013-12-04 03:40:00,52.2,51.7,29.43,SSE,159,1.0,2.0,98,0.00,,,0.00,VWS V14.01,2013-12-04 09:40:00,
2013-12-04 03:45:00,52.3,51.8,29.44,SSE,159,0.0,3.0,98,0.00,,,0.00,VWS V14.01,2013-12-04 09:45:00,
2013-12-04 03:50:00,52.4,51.8,29.43,SE,130,0.0,3.0,98,0.00,,,0.00,VWS V14.01,2013-12-04 09:50:00,
2013-12-04 03:56:00,52.6,52.0,29.43,SSE,160,3.0,3.0,98,0.00,,,0.00,VWS V14.01,2013-12-04 09:56:00,
2013-12-04 04:00:00,52.6,52.0,29.43,SE,142,1.0,3.0,98,0.00,,CLR,0.00,VWS V15.00,2013-12-04 10:00:00,
2013-12-04 04:01:00,52.7,52.2,29.43,SSE,164,2.0,4.0,98,0.00,,,0.00,VWS V14.01,2013-12-04 10:01:00,
2013-12-04 04:06:00,52.8,52.2,29.43,SSE,155,2.0,4.0,98,0.00,,,0.00,VWS V14.01,2013-12-04 10:06:00,
2013-12-04 04:11:00,52.8,52.2,29.43,SSE,168,0.0,4.0,98,0.00,,,0.00,VWS V14.01,2013-12-04 10:11:00,
2013-12-04 04:16:00,52.8,52.2,29.43,SSE,161,0.0,4.0,98,0.00,,,0.00,VWS V14.01,2013-12-04 10:16:00,
2013-12-04 04:21:00,52.8,52.2,29.43,South,170,1.0,4.0,98,0.00,,,0.00,VWS V14.01,2013-12-04 10:21:00,
2013-12-04 04:26:00,52.8,52.2,29.44,South,170,0.0,4.0,98,0.00,,,0.00,VWS V14.01,2013-12-04 10:26:00,
2013-12-04 04:30:00,52.8,52.2,29.44,SE,136,0.0,4.0,98,0.00,,CLR,0.00,VWS V14.01,2013-12-04 10:30:00,
2013-12-04 04:31:00,52.8,52.2,29.44,South,169,2.0,3.0,98,0.00,,,0.00,VWS V14.01,2013-12-04 10:31:00,
2013-12-04 04:36:00,52.9,52.3,29.44,SE,146,0.0,3.0,98,0.00,,,0.00,VWS V14.01,2013-12-04 10:36:00,
2013-12-04 04:41:00,52.9,52.3,29.43,SSE,150,2.0,3.0,98,0.00,,,0.00,VWS V14.01,2013-12-04 10:41:00,
2013-12-04 04:47:00,52.8,52.2,29.43,SE,130,1.0,3.0,98,0.00,,,0.00,VWS V14.01,2013-12-04 10:47:00,
2013-12-04 04:52:00,52.8,52.2,29.43,SE,128,0.0,3.0,98,0.00,,,0.00,VWS V14.01,2013-12-04 10:52:00,
2013-12-04 04:57:00,52.8,52.2,29.43,ESE,113,0.0,3.0,98,0.00,,,0.00,VWS V14.01,2013-12-04 10:57:00,
2013-12-04 05:00:00,52.7,52.2,29.43,ESE,123,0.0,3.0,98,0.00,,CLR,0.00,VWS V14.01,2013-12-04 11:00:00,
2013-12-04 05:02:00,52.7,52.2,29.43,SE,127,0.0,1.0,98,0.00,,,0.00,VWS V14.01,2013-12-04 11:02:00,
2013-12-04 05:07:00,52.7,52.2,29.43,SE,128,0.0,2.0,98,0.00,,,0.00,VWS V14.01,2013-12-04 11:07:00,
2013-12-04 05:12:00,52.8,52.2,29.43,SSE,161,0.0,4.0,98,0.00,,,0.00,VWS V14.01,2013-12-04 11:12:00,
2013-12-04 05:17:00,52.8,52.2,29.43,SE,134,0.0,4.0,98,0.00,,,0.00,VWS V14.01,2013-12-04 11:17:00,
2013-12-04 05:22:00,52.9,52.3,29.43,SE,130,1.0,4.0,98,0.00,,,0.00,VWS V14.01,2013-12-04 11:22:00,
2013-12-04 05:27:00,52.9,52.3,29.42,ESE,111,2.0,8.0,98,0.00,,,0.00,VWS V14.01,2013-12-04 11:27:00,
2013-12-04 05:30:00,52.9,52.3,29.43,SE,144,0.0,8.0,98,0.00,,CLR,0.00,VWS V15.00,2013-12-04 11:30:00,
2013-12-04 05:32:00,53.0,52.5,29.42,SE,140,2.0,7.0,98,0.00,,,0.00,VWS V14.01,2013-12-04 11:32:00,
2013-12-04 05:37:00,53.0,52.5,29.42,SE,130,1.0,7.0,98,0.00,,,0.00,VWS V14.01,2013-12-04 11:37:00,
2013-12-04 05:42:00,53.0,52.5,29.42,SSE,159,2.0,7.0,98,0.00,,,0.00,VWS V14.01,2013-12-04 11:42:00,
2013-12-04 05:48:00,53.0,52.5,29.43,ESE,118,1.0,7.0,98,0.00,,,0.00,VWS V14.01,2013-12-04 11:48:00,
2013-12-04 05:53:00,53.0,52.5,29.43,SE,126,0.0,7.0,98,0.00,,,0.00,VWS V14.01,2013-12-04 11:53:00,
2013-12-04 05:58:00,53.0,52.5,29.43,South,171,1.0,7.0,98,0.00,,,0.00,VWS V14.01,2013-12-04 11:58:00,
2013-12-04 06:00:00,53.0,52.5,29.43,SE,136,1.0,7.0,98,0.00,,CLR,0.00,VWS V14.01,2013-12-04 12:00:00,
2013-12-04 06:03:00,53.0,52.5,29.43,SSE,168,2.0,5.0,98,0.00,,,0.00,VWS V14.01,2013-12-04 12:03:00,
2013-12-04 06:08:00,53.1,52.5,29.43,South,177,1.0,5.0,98,0.00,,,0.00,VWS V14.01,2013-12-04 12:08:00,
2013-12-04 06:13:00,53.1,52.5,29.43,SSE,160,0.0,7.0,98,0.00,,,0.00,VWS V14.01,2013-12-04 12:13:00,
2013-12-04 06:18:00,53.1,52.5,29.43,SSE,148,1.0,7.0,98,0.00,,,0.00,VWS V14.01,2013-12-04 12:18:00,
2013-12-04 06:23:00,53.2,52.7,29.43,ESE,105,2.0,7.0,98,0.00,,,0.00,VWS V14.01,2013-12-04 12:23:00,
2013-12-04 06:28:00,53.2,52.7,29.43,SE,134,2.0,7.0,98,0.00,,,0.00,VWS V14.01,2013-12-04 12:28:00,
2013-12-04 06:30:00,53.2,52.7,29.43,SSE,147,1.0,7.0,98,0.00,,CLR,0.00,VWS V14.01,2013-12-04 12:30:00,
2013-12-04 06:33:00,53.2,52.7,29.43,SE,139,4.0,4.0,98,0.00,,,0.00,VWS V14.01,2013-12-04 12:33:00,
2013-12-04 06:38:00,53.2,52.7,29.43,SE,128,2.0,5.0,98,0.00,,,0.00,VWS V14.01,2013-12-04 12:38:00,
2013-12-04 06:44:00,53.2,52.7,29.43,SE,134,2.0,5.0,98,0.00,,,0.00,VWS V14.01,2013-12-04 12:44:00,
2013-12-04 06:49:00,53.2,52.7,29.43,SE,144,2.0,5.0,98,0.00,,,0.00,VWS V14.01,2013-12-04 12:49:00,
2013-12-04 06:54:00,53.2,52.7,29.44,SE,146,0.0,5.0,98,0.00,,,0.00,VWS V14.01,2013-12-04 12:54:00,
2013-12-04 06:59:00,53.2,52.7,29.44,SE,130,1.0,1.0,98,0.00,,,0.00,VWS V14.01,2013-12-04 12:59:00,
2013-12-04 07:00:00,53.2,52.7,29.44,SSE,148,1.0,5.0,98,0.00,,CLR,0.00,VWS V14.01,2013-12-04 13:00:00,
2013-12-04 07:04:00,53.2,52.7,29.44,SSE,154,1.0,4.0,98,0.00,,,0.00,VWS V14.01,2013-12-04 13:04:00,
2013-12-04 07:09:00,53.2,52.7,29.44,SSE,159,3.0,5.0,98,0.00,,,0.00,VWS V14.01,2013-12-04 13:09:00,
2013-12-04 07:15:00,53.2,52.7,29.44,South,174,2.0,5.0,98,0.00,,,0.00,VWS V14.01,2013-12-04 13:15:00,
2013-12-04 07:20:00,53.2,52.7,29.43,SE,131,2.0,5.0,98,0.00,,,0.00,VWS V14.01,2013-12-04 13:20:00,
2013-12-04 07:25:00,53.2,52.7,29.43,ESE,113,2.0,5.0,98,0.00,,,0.00,VWS V14.01,2013-12-04 13:25:00,
2013-12-04 07:30:00,53.2,52.7,29.43,SE,134,1.0,3.0,98,0.00,,,0.00,VWS V14.01,2013-12-04 13:30:00,
2013-12-04 07:35:00,53.1,52.5,29.43,SE,146,1.0,5.0,98,0.00,,,0.00,VWS V14.01,2013-12-04 13:35:00,
2013-12-04 07:40:00,53.1,52.5,29.44,South,169,3.0,5.0,98,0.00,,,0.00,VWS V14.01,2013-12-04 13:40:00,
2013-12-04 07:45:00,53.2,52.7,29.44,SSE,147,1.0,5.0,98,0.00,,,0.00,VWS V14.01,2013-12-04 13:45:00,
2013-12-04 07:50:00,53.2,52.7,29.44,SE,126,3.0,5.0,98,0.00,,,0.00,VWS V14.01,2013-12-04 13:50:00,
2013-12-04 07:55:00,53.2,52.7,29.43,SE,126,3.0,6.0,98,0.00,,,0.00,VWS V14.01,2013-12-04 13:55:00,
2013-12-04 08:00:00,53.2,52.7,29.43,SSE,159,2.0,6.0,98,0.00,,CLR,0.00,VWS V14.01,2013-12-04 14:00:00,
2013-12-04 08:01:00,53.2,52.7,29.43,South,169,1.0,5.0,98,0.00,,,0.00,VWS V14.01,2013-12-04 14:01:00,
2013-12-04 08:06:00,53.3,52.8,29.44,SE,130,1.0,5.0,98,0.00,,,0.00,VWS V14.01,2013-12-04 14:06:00,
2013-12-04 08:11:00,53.5,53.0,29.43,SE,140,2.0,5.0,98,0.00,,,0.00,VWS V14.01,2013-12-04 14:11:00,
2013-12-04 08:16:00,53.7,53.2,29.43,SE,146,0.0,5.0,98,0.00,,,0.00,VWS V14.01,2013-12-04 14:16:00,
2013-12-04 08:21:00,53.9,53.3,29.44,SSE,153,2.0,6.0,98,0.00,,,0.00,VWS V14.01,2013-12-04 14:21:00,
2013-12-04 08:26:00,53.8,53.2,29.44,SE,142,2.0,7.0,98,0.00,,,0.00,VWS V14.01,2013-12-04 14:26:00,
2013-12-04 08:30:00,53.8,53.2,29.44,SSE,153,1.0,7.0,98,0.00,,CLR,0.00,VWS V14.01,2013-12-04 14:30:00,
2013-12-04 08:31:00,53.8,53.2,29.44,SE,143,3.0,3.0,98,0.00,,,0.00,VWS V14.01,2013-12-04 14:31:00,
2013-12-04 08:36:00,53.9,53.3,29.44,SSE,155,3.0,4.0,98,0.00,,,0.00,VWS V14.01,2013-12-04 14:36:00,
2013-12-04 08:41:00,54.1,53.5,29.43,SE,126,2.0,5.0,98,0.00,,,0.00,VWS V14.01,2013-12-04 14:41:00,
2013-12-04 08:46:00,54.2,53.7,29.43,SE,126,3.0,5.0,98,0.00,,,0.00,VWS V14.01,2013-12-04 14:46:00,
2013-12-04 08:51:00,54.4,53.8,29.44,SSE,155,6.0,7.0,98,0.00,,,0.00,VWS V14.01,2013-12-04 14:51:00,
2013-12-04 08:56:00,54.3,53.8,29.44,SSE,167,1.0,7.0,98,0.00,,,0.00,VWS V14.01,2013-12-04 14:56:00,
2013-12-04 09:00:00,54.3,53.8,29.44,SSE,151,3.0,7.0,98,0.00,,CLR,0.00,VWS V14.01,2013-12-04 15:00:00,
2013-12-04 09:02:00,54.3,53.8,29.44,ESE,115,2.0,4.0,98,0.00,,,0.00,VWS V14.01,2013-12-04 15:02:00,
2013-12-04 09:07:00,54.3,53.8,29.44,South,177,1.0,4.0,98,0.00,,,0.00,VWS V14.01,2013-12-04 15:07:00,
2013-12-04 09:12:00,54.4,53.8,29.45,South,175,1.0,7.0,98,0.00,,,0.00,VWS V14.01,2013-12-04 15:12:00,
2013-12-04 09:17:00,54.6,54.0,29.46,South,174,1.0,7.0,98,0.00,,,0.00,VWS V14.01,2013-12-04 15:17:00,
2013-12-04 09:22:00,55.0,54.5,29.46,SSE,161,1.0,7.0,98,0.00,,,0.00,VWS V14.01,2013-12-04 15:22:00,
2013-12-04 09:27:00,55.5,55.0,29.45,SSE,163,2.0,7.0,98,0.00,,,0.00,VWS V14.01,2013-12-04 15:27:00,
2013-12-04 09:30:00,55.7,55.2,29.45,SSE,156,5.0,7.0,98,0.00,,CLR,0.00,VWS V14.01,2013-12-04 15:30:00,
2013-12-04 09:32:00,55.8,55.0,29.45,South,170,2.0,6.0,97,0.00,,,0.00,VWS V14.01,2013-12-04 15:32:00,
2013-12-04 09:37:00,55.9,54.8,29.45,South,190,4.0,6.0,96,0.00,,,0.00,VWS V14.01,2013-12-04 15:37:00,
2013-12-04 09:42:00,56.2,55.1,29.45,South,186,4.0,6.0,96,0.00,,,0.00,VWS V14.01,2013-12-04 15:42:00,
2013-12-04 09:47:00,56.9,55.8,29.46,South,182,4.0,6.0,96,0.00,,,0.00,VWS V14.01,2013-12-04 15:47:00,
2013-12-04 09:53:00,57.5,55.8,29.46,SSE,166,2.0,6.0,94,0.00,,,0.00,VWS V14.01,2013-12-04 15:53:00,
2013-12-04 09:58:00,57.8,55.8,29.46,South,169,2.0,8.0,93,0.00,,,0.00,VWS V14.01,2013-12-04 15:58:00,
2013-12-04 10:00:00,57.9,55.9,29.46,South,180,5.0,11.0,93,0.00,,CLR,0.00,VWS V14.01,2013-12-04 16:00:00,
2013-12-04 10:03:00,58.2,55.9,29.46,South,181,9.0,10.0,92,0.00,,,0.00,VWS V14.01,2013-12-04 16:03:00,
2013-12-04 10:08:00,58.7,56.1,29.46,SW,222,3.0,11.0,91,0.00,,,0.00,VWS V14.01,2013-12-04 16:08:00,
2013-12-04 10:13:00,59.3,56.4,29.47,South,186,5.0,11.0,90,0.00,,,0.00,VWS V14.01,2013-12-04 16:13:00,
2013-12-04 10:18:00,59.9,56.7,29.47,South,169,4.0,11.0,89,0.00,,,0.00,VWS V14.01,2013-12-04 16:18:00,
2013-12-04 10:23:00,60.4,56.2,29.47,SSW,194,4.0,13.0,86,0.00,,,0.00,VWS V14.01,2013-12-04 16:23:00,
2013-12-04 10:28:00,60.8,56.6,29.47,SSW,203,8.0,13.0,86,0.00,,,0.00,VWS V14.01,2013-12-04 16:28:00,
2013-12-04 10:30:00,60.8,56.6,29.47,South,174,5.0,13.0,86,0.00,,CLR,0.00,VWS V14.01,2013-12-04 16:30:00,
2013-12-04 10:33:00,61.4,56.9,29.46,South,184,7.0,10.0,85,0.00,,,0.00,VWS V14.01,2013-12-04 16:33:00,
2013-12-04 10:38:00,62.1,57.2,29.45,South,180,7.0,10.0,84,0.00,,,0.00,VWS V14.01,2013-12-04 16:38:00,
2013-12-04 10:44:00,62.3,56.4,29.45,SSW,205,8.0,11.0,81,0.00,,,0.00,VWS V14.01,2013-12-04 16:44:00,
2013-12-04 10:49:00,62.3,56.7,29.45,SSW,195,2.0,11.0,82,0.00,,,0.00,VWS V14.01,2013-12-04 16:49:00,
2013-12-04 10:54:00,62.4,56.5,29.45,SSE,167,3.0,11.0,81,0.00,,,0.00,VWS V14.01,2013-12-04 16:54:00,
2013-12-04 10:59:00,62.6,56.3,29.45,SW,214,0.0,0.0,80,0.00,,,0.00,VWS V14.01,2013-12-04 16:59:00,
2013-12-04 11:00:00,62.6,56.3,29.45,SW,214,0.0,11.0,80,0.00,,CLR,0.00,VWS V14.01,2013-12-04 17:00:00,
2013-12-04 11:04:00,62.7,56.5,29.45,South,180,8.0,10.0,80,0.00,,,0.00,VWS V14.01,2013-12-04 17:04:00,
2013-12-04 11:09:00,63.0,56.4,29.45,South,180,1.0,10.0,79,0.00,,,0.00,VWS V14.01,2013-12-04 17:09:00,
2013-12-04 11:14:00,63.7,56.7,29.45,SSE,166,3.0,10.0,78,0.00,,,0.00,VWS V14.01,2013-12-04 17:14:00,
2013-12-04 11:19:00,64.4,57.0,29.45,SSE,158,4.0,11.0,77,0.00,,,0.00,VWS V14.01,2013-12-04 17:19:00,
2013-12-04 11:24:00,64.9,56.4,29.45,SSE,158,3.0,11.0,74,0.00,,,0.00,VWS V14.01,2013-12-04 17:24:00,
2013-12-04 11:29:00,65.3,56.4,29.45,WSW,237,10.0,10.0,73,0.00,,,0.00,VWS V14.01,2013-12-04 17:29:00,
2013-12-04 11:30:00,65.3,57.2,29.45,SSW,194,8.0,11.0,75,0.00,,CLR,0.00,VWS V14.01,2013-12-04 17:30:00,
2013-12-04 11:34:00,65.6,56.7,29.45,SSW,207,5.0,10.0,73,0.00,,,0.00,VWS V14.01,2013-12-04 17:34:00,
2013-12-04 11:40:00,65.5,56.2,29.45,SW,235,7.0,10.0,72,0.00,,,0.00,VWS V14.01,2013-12-04 17:40:00,
2013-12-04 11:45:00,65.5,56.2,29.44,SSW,193,7.0,10.0,72,0.00,,CLR,0.00,VWS V14.01,2013-12-04 17:45:00,
2013-12-04 11:50:00,65.6,56.3,29.44,South,178,5.0,11.0,72,0.00,,CLR,0.00,VWS V14.01,2013-12-04 17:50:00,
2013-12-04 11:55:00,65.9,56.2,29.44,SSW,209,7.0,11.0,71,0.00,,CLR,0.00,VWS V14.01,2013-12-04 17:55:00,
2013-12-04 12:00:00,65.5,55.5,29.43,SSW,201,3.0,9.0,70,0.00,,CLR,0.00,VWS V14.01,2013-12-04 18:00:00,
2013-12-04 12:05:00,65.3,55.7,29.43,South,190,5.0,9.0,71,0.00,,CLR,0.00,VWS V14.01,2013-12-04 18:05:00,
2013-12-04 12:10:00,65.2,55.6,29.42,SSE,152,4.0,9.0,71,0.00,,CLR,0.00,VWS V14.01,2013-12-04 18:10:00,
2013-12-04 12:15:00,65.2,56.0,29.43,SSW,193,4.0,9.0,72,0.00,,CLR,0.00,VWS V14.01,2013-12-04 18:15:00,
2013-12-04 12:20:00,65.3,55.7,29.42,South,170,6.0,9.0,71,0.00,,CLR,0.00,VWS V14.01,2013-12-04 18:20:00,
2013-12-04 12:25:00,65.7,55.3,29.42,SSW,194,6.0,9.0,69,0.00,,CLR,0.00,VWS V14.01,2013-12-04 18:25:00,
2013-12-04 12:30:00,65.9,55.5,29.42,South,182,2.0,9.0,69,0.00,,CLR,0.00,VWS V14.01,2013-12-04 18:30:00,
2013-12-04 12:31:00,66.1,55.2,29.42,SSW,194,2.0,6.0,68,0.00,,CLR,0.00,VWS V14.01,2013-12-04 18:31:00,
2013-12-04 12:36:00,66.1,54.8,29.42,SSW,209,4.0,8.0,67,0.00,,CLR,0.00,VWS V14.01,2013-12-04 18:36:00,
2013-12-04 12:41:00,66.1,54.8,29.42,SW,236,3.0,9.0,67,0.00,,CLR,0.00,VWS V14.01,2013-12-04 18:41:00,
2013-12-04 12:46:00,66.3,54.6,29.42,SSW,201,2.0,9.0,66,0.00,,CLR,0.00,VWS V14.01,2013-12-04 18:46:00,
2013-12-04 12:51:00,66.7,54.6,29.42,South,188,7.0,12.0,65,0.00,,CLR,0.00,VWS V14.01,2013-12-04 18:51:00,
2013-12-04 12:56:00,67.2,54.6,29.42,SW,222,3.0,12.0,64,0.00,,CLR,0.00,VWS V14.01,2013-12-04 18:56:00,
2013-12-04 13:00:00,67.5,54.5,29.43,South,180,7.0,12.0,63,0.00,,CLR,0.00,VWS V14.01,2013-12-04 19:00:00,
2013-12-04 13:01:00,67.6,54.1,29.43,South,180,3.0,7.0,62,0.00,,CLR,0.00,VWS V14.01,2013-12-04 19:01:00,
2013-12-04 13:06:00,67.5,53.6,29.43,SSW,196,2.0,9.0,61,0.00,,CLR,0.00,VWS V14.01,2013-12-04 19:06:00,
2013-12-04 13:11:00,67.4,53.9,29.43,SSW,211,6.0,9.0,62,0.00,,CLR,0.00,VWS V14.01,2013-12-04 19:11:00,
2013-12-04 13:16:00,67.1,53.7,29.43,WSW,244,12.0,12.0,62,0.00,,CLR,0.00,VWS V14.01,2013-12-04 19:16:00,
2013-12-04 13:21:00,66.8,53.8,29.43,South,178,3.0,12.0,63,0.00,,CLR,0.00,VWS V14.01,2013-12-04 19:21:00,
2013-12-04 13:27:00,66.3,53.8,29.43,SSW,198,4.0,12.0,64,0.00,,CLR,0.00,VWS V14.01,2013-12-04 19:27:00,
2013-12-04 13:30:00,66.2,53.7,29.43,SSW,212,5.0,12.0,64,0.00,,CLR,0.00,VWS V14.01,2013-12-04 19:30:00,
2013-12-04 13:32:00,66.1,53.6,29.43,SSW,192,4.0,8.0,64,0.00,,CLR,0.00,VWS V14.01,2013-12-04 19:32:00,
2013-12-04 13:37:00,66.0,53.9,29.44,SW,229,4.0,8.0,65,0.00,,CLR,0.00,VWS V14.01,2013-12-04 19:37:00,
2013-12-04 13:42:00,66.0,53.5,29.44,SSW,212,6.0,11.0,64,0.00,,CLR,0.00,VWS V14.01,2013-12-04 19:42:00,
2013-12-04 13:47:00,66.1,54.0,29.43,SSW,197,9.0,11.0,65,0.00,,CLR,0.00,VWS V14.01,2013-12-04 19:47:00,
2013-12-04 13:52:00,66.3,53.8,29.43,SW,223,7.0,12.0,64,0.00,,CLR,0.00,VWS V14.01,2013-12-04 19:52:00,
2013-12-04 13:57:00,66.3,53.8,29.43,SW,215,7.0,12.0,64,0.00,,CLR,0.00,VWS V14.01,2013-12-04 19:57:00,
2013-12-04 14:00:00,66.3,53.8,29.43,SSW,204,7.0,12.0,64,0.00,,CLR,0.00,VWS V15.00,2013-12-04 20:00:00,
2013-12-04 14:02:00,66.3,53.8,29.43,SW,224,0.0,9.0,64,0.00,,CLR,0.00,VWS V14.01,2013-12-04 20:02:00,
2013-12-04 14:07:00,66.4,53.9,29.43,SSW,207,6.0,9.0,64,0.00,,CLR,0.00,VWS V14.01,2013-12-04 20:07:00,
2013-12-04 14:12:00,66.8,53.4,29.43,WSW,238,5.0,11.0,62,0.00,,CLR,0.00,VWS V14.01,2013-12-04 20:12:00,
2013-12-04 14:17:00,67.2,53.8,29.44,SSW,196,7.0,11.0,62,0.00,,CLR,0.00,VWS V14.01,2013-12-04 20:17:00,
2013-12-04 14:23:00,67.3,53.4,29.43,SSW,207,7.0,11.0,61,0.00,,CLR,0.00,VWS V14.01,2013-12-04 20:23:00,
2013-12-04 14:28:00,67.5,53.6,29.44,SW,222,1.0,11.0,61,0.00,,CLR,0.00,VWS V14.01,2013-12-04 20:28:00,
2013-12-04 14:30:00,67.6,53.7,29.44,South,181,0.0,11.0,61,0.00,,CLR,0.00,VWS V14.01,2013-12-04 20:30:00,
2013-12-04 14:33:00,67.8,53.4,29.44,SSW,192,3.0,7.0,60,0.00,,CLR,0.00,VWS V14.01,2013-12-04 20:33:00,
2013-12-04 14:38:00,67.9,53.1,29.44,South,171,3.0,11.0,59,0.00,,CLR,0.00,VWS V14.01,2013-12-04 20:38:00,
2013-12-04 14:43:00,67.6,52.8,29.44,WSW,247,1.0,11.0,59,0.00,,CLR,0.00,VWS V14.01,2013-12-04 20:43:00,
2013-12-04 14:48:00,67.2,52.9,29.44,SSW,205,1.0,11.0,60,0.00,,CLR,0.00,VWS V14.01,2013-12-04 20:48:00,
2013-12-04 14:53:00,67.0,53.1,29.45,SSW,207,3.0,11.0,61,0.00,,CLR,0.00,VWS V14.01,2013-12-04 20:53:00,
2013-12-04 14:58:00,66.8,52.5,29.45,South,187,1.0,11.0,60,0.00,,CLR,0.00,VWS V14.01,2013-12-04 20:58:00,
2013-12-04 15:00:00,66.7,52.4,29.45,SSW,205,3.0,11.0,60,0.00,,CLR,0.00,VWS V14.01,2013-12-04 21:00:00,
2013-12-04 15:03:00,66.7,52.4,29.46,SSW,211,2.0,9.0,60,0.00,,CLR,0.00,VWS V14.01,2013-12-04 21:03:00,
2013-12-04 15:08:00,66.6,52.3,29.46,SSW,200,4.0,9.0,60,0.00,,CLR,0.00,VWS V14.01,2013-12-04 21:08:00,
2013-12-04 15:14:00,66.7,52.8,29.46,SSW,196,5.0,9.0,61,0.00,,CLR,0.00,VWS V14.01,2013-12-04 21:14:00,
2013-12-04 15:19:00,66.9,52.6,29.46,SSW,209,7.0,9.0,60,0.00,,CLR,0.00,VWS V14.01,2013-12-04 21:19:00,
2013-12-04 15:24:00,67.0,52.2,29.46,SSW,205,9.0,9.0,59,0.00,,CLR,0.00,VWS V14.01,2013-12-04 21:24:00,
2013-12-04 15:29:00,67.0,51.8,29.46,South,171,2.0,9.0,58,0.00,,CLR,0.00,VWS V14.01,2013-12-04 21:29:00,
2013-12-04 15:30:00,67.0,51.8,29.46,South,171,2.0,9.0,58,0.00,,CLR,0.00,VWS V14.01,2013-12-04 21:30:00,
2013-12-04 15:34:00,67.0,51.8,29.46,SSW,197,6.0,8.0,58,0.00,,CLR,0.00,VWS V14.01,2013-12-04 21:34:00,
2013-12-04 15:39:00,66.9,51.2,29.46,SSW,202,3.0,8.0,57,0.00,,CLR,0.00,VWS V14.01,2013-12-04 21:39:00,
2013-12-04 15:44:00,66.8,51.1,29.46,South,169,7.0,8.0,57,0.00,,CLR,0.00,VWS V14.01,2013-12-04 21:44:00,
2013-12-04 15:49:00,66.7,51.0,29.46,South,191,7.0,8.0,57,0.00,,CLR,0.00,VWS V14.01,2013-12-04 21:49:00,
2013-12-04 15:54:00,66.8,51.1,29.46,SW,230,1.0,8.0,57,0.00,,CLR,0.00,VWS V14.01,2013-12-04 21:54:00,
2013-12-04 15:59:00,66.7,50.5,29.46,SSE,166,1.0,4.0,56,0.00,,CLR,0.00,VWS V14.01,2013-12-04 21:59:00,
2013-12-04 16:00:00,66.7,50.5,29.47,SSW,207,4.0,8.0,56,0.00,,CLR,0.00,VWS V14.01,2013-12-04 22:00:00,
2013-12-04 16:05:00,66.4,50.7,29.47,SSW,213,2.0,7.0,57,0.00,,CLR,0.00,VWS V14.01,2013-12-04 22:05:00,
2013-12-04 16:10:00,66.1,50.4,29.47,SSW,203,1.0,7.0,57,0.00,,CLR,0.00,VWS V14.01,2013-12-04 22:10:00,
2013-12-04 16:15:00,65.9,50.2,29.47,SSW,198,2.0,7.0,57,0.00,,CLR,0.00,VWS V14.01,2013-12-04 22:15:00,
2013-12-04 16:20:00,65.7,50.1,29.47,SSW,201,0.0,7.0,57,0.00,,CLR,0.00,VWS V14.01,2013-12-04 22:20:00,
2013-12-04 16:25:00,65.4,49.8,29.48,SSW,200,3.0,7.0,57,0.00,,CLR,0.00,VWS V14.01,2013-12-04 22:25:00,
2013-12-04 16:30:00,65.1,50.0,29.48,South,190,2.0,5.0,58,0.00,,CLR,0.00,VWS V14.01,2013-12-04 22:30:00,
2013-12-04 16:35:00,64.9,49.8,29.48,SW,218,2.0,5.0,58,0.00,,CLR,0.00,VWS V14.01,2013-12-04 22:35:00,
2013-12-04 16:40:00,64.7,49.6,29.49,SSW,199,0.0,5.0,58,0.00,,CLR,0.00,VWS V14.01,2013-12-04 22:40:00,
2013-12-04 16:45:00,64.5,49.9,29.49,SW,217,0.0,5.0,59,0.00,,CLR,0.00,VWS V14.01,2013-12-04 22:45:00,
2013-12-04 16:50:00,64.2,49.6,29.49,SW,214,2.0,6.0,59,0.00,,CLR,0.00,VWS V14.01,2013-12-04 22:50:00,
2013-12-04 16:55:00,63.8,49.2,29.49,SSW,211,1.0,6.0,59,0.00,,CLR,0.00,VWS V14.01,2013-12-04 22:55:00,
2013-12-04 17:00:00,63.6,49.5,29.50,WSW,242,1.0,6.0,60,0.00,,CLR,0.00,VWS V14.01,2013-12-04 23:00:00,
2013-12-04 17:01:00,63.4,49.3,29.50,WSW,239,3.0,4.0,60,0.00,,CLR,0.00,VWS V14.01,2013-12-04 23:01:00,
2013-12-04 17:06:00,63.2,49.1,29.50,West,265,1.0,6.0,60,0.00,,CLR,0.00,VWS V14.01,2013-12-04 23:06:00,
2013-12-04 17:11:00,63.1,49.0,29.51,West,271,0.0,6.0,60,0.00,,CLR,0.00,VWS V14.01,2013-12-04 23:11:00,
2013-12-04 17:16:00,62.8,49.2,29.51,West,271,0.0,6.0,61,0.00,,CLR,0.00,VWS V14.01,2013-12-04 23:16:00,
2013-12-04 17:21:00,62.4,49.2,29.51,West,271,0.0,6.0,62,0.00,,CLR,0.00,VWS V14.01,2013-12-04 23:21:00,
2013-12-04 17:26:00,61.7,49.0,29.51,West,271,0.0,6.0,63,0.00,,CLR,0.00,VWS V14.01,2013-12-04 23:26:00,
2013-12-04 17:30:00,61.3,49.0,29.51,West,271,0.0,6.0,64,0.00,,CLR,0.00,VWS V15.00,2013-12-04 23:30:00,
2013-12-04 17:31:00,60.9,49.1,29.52,NW,313,0.0,5.0,65,0.00,,CLR,0.00,VWS V14.01,2013-12-04 23:31:00,
2013-12-04 17:36:00,60.2,48.8,29.52,WNW,284,0.0,5.0,66,0.00,,CLR,0.00,VWS V14.01,2013-12-04 23:36:00,
2013-12-04 17:41:00,59.8,48.8,29.52,WNW,284,0.0,5.0,67,0.00,,CLR,0.00,VWS V14.01,2013-12-04 23:41:00,
2013-12-04 17:46:00,59.4,48.5,29.52,WNW,292,0.0,5.0,67,0.00,,CLR,0.00,VWS V14.01,2013-12-04 23:46:00,
2013-12-04 17:52:00,59.0,48.5,29.53,West,271,0.0,5.0,68,0.00,,CLR,0.00,VWS V14.01,2013-12-04 23:52:00,
2013-12-04 17:57:00,58.7,48.2,29.53,WNW,284,0.0,5.0,68,0.00,,CLR,0.00,VWS V14.01,2013-12-04 23:57:00,
2013-12-04 18:00:00,58.7,48.2,29.53,West,279,0.0,5.0,68,0.00,,CLR,0.00,VWS V14.01,2013-12-05 00:00:00,
2013-12-04 18:02:00,58.6,48.1,29.54,West,279,0.0,1.0,68,0.00,,CLR,0.00,VWS V14.01,2013-12-05 00:02:00,
2013-12-04 18:07:00,58.3,47.8,29.55,West,279,0.0,1.0,68,0.00,,CLR,0.00,VWS V14.01,2013-12-05 00:07:00,
2013-12-04 18:12:00,58.1,48.0,29.55,WNW,288,0.0,1.0,69,0.00,,CLR,0.00,VWS V14.01,2013-12-05 00:12:00,
2013-12-04 18:17:00,57.9,47.8,29.56,WNW,288,5.0,5.0,69,0.00,,CLR,0.00,VWS V14.01,2013-12-05 00:17:00,
2013-12-04 18:22:00,57.7,47.2,29.56,NW,304,2.0,5.0,68,0.00,,CLR,0.00,VWS V14.01,2013-12-05 00:22:00,
2013-12-04 18:27:00,57.5,47.0,29.56,WNW,288,1.0,6.0,68,0.00,,CLR,0.00,VWS V14.01,2013-12-05 00:27:00,
2013-12-04 18:30:00,57.5,47.0,29.56,WNW,302,0.0,6.0,68,0.00,,CLR,0.00,VWS V14.01,2013-12-05 00:30:00,
2013-12-04 18:32:00,57.5,46.6,29.57,WNW,290,3.0,7.0,67,0.00,,CLR,0.00,VWS V14.01,2013-12-05 00:32:00,
2013-12-04 18:37:00,57.4,46.9,29.57,WNW,288,2.0,7.0,68,0.00,,CLR,0.00,VWS V14.01,2013-12-05 00:37:00,
2013-12-04 18:43:00,57.2,47.1,29.57,NW,325,2.0,9.0,69,0.00,,CLR,0.00,VWS V14.01,2013-12-05 00:43:00,
2013-12-04 18:48:00,56.8,47.1,29.58,West,275,5.0,11.0,70,0.00,,CLR,0.00,VWS V14.01,2013-12-05 00:48:00,
2013-12-04 18:53:00,56.4,47.1,29.57,NNW,332,2.0,11.0,71,0.00,,CLR,0.00,VWS V14.01,2013-12-05 00:53:00,
2013-12-04 18:58:00,55.9,47.0,29.57,North,355,3.0,11.0,72,0.00,,CLR,0.00,VWS V14.01,2013-12-05 00:58:00,
2013-12-04 19:00:00,55.9,47.0,29.57,WNW,283,4.0,11.0,72,0.00,,CLR,0.00,VWS V14.01,2013-12-05 01:00:00,
2013-12-04 19:03:00,55.5,47.0,29.58,WNW,297,4.0,12.0,73,0.00,,CLR,0.00,VWS V14.01,2013-12-05 01:03:00,
2013-12-04 19:08:00,55.0,46.9,29.59,NW,314,5.0,12.0,74,0.00,,CLR,0.00,VWS V14.01,2013-12-05 01:08:00,
2013-12-04 19:13:00,54.5,46.4,29.59,WNW,294,2.0,12.0,74,0.00,,CLR,0.00,VWS V14.01,2013-12-05 01:13:00,
2013-12-04 19:18:00,53.9,46.2,29.59,WNW,295,7.0,16.0,75,0.00,,CLR,0.00,VWS V14.01,2013-12-05 01:18:00,
2013-12-04 19:23:00,52.9,45.9,29.59,NW,309,6.0,16.0,77,0.00,,CLR,0.00,VWS V14.01,2013-12-05 01:23:00,
2013-12-04 19:28:00,52.1,45.5,29.59,NW,324,10.0,16.0,78,0.00,,CLR,0.00,VWS V14.01,2013-12-05 01:28:00,
2013-12-04 19:30:00,52.0,45.4,29.59,NNW,331,8.0,16.0,78,0.00,,CLR,0.00,VWS V14.01,2013-12-05 01:30:00,
2013-12-04 19:34:00,51.3,45.3,29.59,WNW,284,7.0,17.0,80,0.00,,CLR,0.00,VWS V14.01,2013-12-05 01:34:00,
2013-12-04 19:39:00,50.5,44.9,29.60,NW,323,6.0,17.0,81,0.00,,CLR,0.00,VWS V14.01,2013-12-05 01:39:00,
2013-12-04 19:44:00,49.9,44.6,29.60,NW,310,6.0,17.0,82,0.00,,CLR,0.00,VWS V14.01,2013-12-05 01:44:00,
2013-12-04 19:49:00,49.4,44.5,29.61,West,269,7.0,17.0,83,0.00,,CLR,0.00,VWS V14.01,2013-12-05 01:49:00,
2013-12-04 19:54:00,48.9,44.3,29.60,WNW,282,2.0,17.0,84,0.00,,CLR,0.00,VWS V14.01,2013-12-05 01:54:00,
2013-12-04 19:59:00,48.7,44.1,29.61,WNW,302,0.0,3.0,84,0.00,,CLR,0.00,VWS V14.01,2013-12-05 01:59:00,
2013-12-04 20:00:00,48.7,44.1,29.61,NW,317,2.0,17.0,84,0.00,,CLR,0.00,VWS V14.01,2013-12-05 02:00:00,
2013-12-04 20:04:00,48.5,44.2,29.61,WNW,300,2.0,8.0,85,0.00,,CLR,0.00,VWS V14.01,2013-12-05 02:04:00,
2013-12-04 20:09:00,48.3,44.0,29.62,WNW,293,4.0,8.0,85,0.00,,CLR,0.00,VWS V14.01,2013-12-05 02:09:00,
2013-12-04 20:14:00,48.1,43.8,29.63,NW,323,9.0,15.0,85,0.00,,CLR,0.00,VWS V14.01,2013-12-05 02:14:00,
2013-12-04 20:19:00,48.0,43.7,29.64,NW,304,6.0,15.0,85,0.00,,CLR,0.00,VWS V14.01,2013-12-05 02:19:00,
2013-12-04 20:24:00,47.9,43.6,29.63,North,5,7.0,15.0,85,0.00,,CLR,0.00,VWS V14.01,2013-12-05 02:24:00,
2013-12-04 20:30:00,47.8,43.5,29.63,WNW,292,3.0,9.0,85,0.00,,CLR,0.00,VWS V14.01,2013-12-05 02:30:00,
2013-12-04 20:35:00,47.6,43.3,29.64,WNW,286,2.0,13.0,85,0.00,,CLR,0.00,VWS V14.01,2013-12-05 02:35:00,
2013-12-04 20:40:00,47.5,43.2,29.64,NW,304,12.0,13.0,85,0.00,,,0.00,VWS V14.01,2013-12-05 02:40:00,
2013-12-04 20:45:00,47.4,43.1,29.65,NW,313,10.0,13.0,85,0.00,,,0.00,VWS V14.01,2013-12-05 02:45:00,
2013-12-04 20:50:00,47.3,43.0,29.64,NW,313,7.0,17.0,85,0.00,,,0.00,VWS V14.01,2013-12-05 02:50:00,
2013-12-04 20:55:00,47.1,42.8,29.64,NNW,336,8.0,17.0,85,0.00,,,0.00,VWS V14.01,2013-12-05 02:55:00,
2013-12-04 21:00:00,46.9,42.6,29.64,West,273,5.0,14.0,85,0.00,,,0.00,VWS V14.01,2013-12-05 03:00:00,
2013-12-04 21:05:00,46.8,42.5,29.65,WNW,302,5.0,14.0,85,0.00,,,0.00,VWS V14.01,2013-12-05 03:05:00,
2013-12-04 21:10:00,46.7,42.4,29.65,NW,325,6.0,14.0,85,0.00,,,0.00,VWS V14.01,2013-12-05 03:10:00,
2013-12-04 21:15:00,46.6,42.3,29.65,West,273,1.0,14.0,85,0.00,,,0.00,VWS V14.01,2013-12-05 03:15:00,
2013-12-04 21:21:00,46.5,42.2,29.65,NNW,342,3.0,14.0,85,0.00,,,0.00,VWS V14.01,2013-12-05 03:21:00,
2013-12-04 21:26:00,46.4,42.1,29.64,NW,325,1.0,14.0,85,0.00,,,0.00,VWS V14.01,2013-12-05 03:26:00,
2013-12-04 21:30:00,46.3,42.0,29.65,NW,306,3.0,14.0,85,0.00,,CLR,0.00,VWS V15.00,2013-12-05 03:30:00,
2013-12-04 21:31:00,46.3,42.0,29.65,WNW,303,2.0,7.0,85,0.00,,,0.00,VWS V14.01,2013-12-05 03:31:00,
2013-12-04 21:36:00,46.2,42.0,29.66,WNW,301,5.0,11.0,85,0.00,,,0.00,VWS V14.01,2013-12-05 03:36:00,
2013-12-04 21:41:00,46.2,42.0,29.65,NW,323,2.0,11.0,85,0.00,,,0.00,VWS V14.01,2013-12-05 03:41:00,
2013-12-04 21:46:00,46.1,41.8,29.65,North,350,5.0,11.0,85,0.00,,,0.00,VWS V14.01,2013-12-05 03:46:00,
2013-12-04 21:51:00,46.0,41.8,29.65,NW,319,1.0,11.0,85,0.00,,,0.00,VWS V14.01,2013-12-05 03:51:00,
2013-12-04 21:56:00,45.9,41.7,29.65,NW,316,5.0,11.0,85,0.00,,,0.00,VWS V14.01,2013-12-05 03:56:00,
2013-12-04 22:00:00,45.8,41.2,29.65,WNW,303,4.0,11.0,84,0.00,,CLR,0.00,VWS V14.01,2013-12-05 04:00:00,
2013-12-04 22:01:00,45.8,41.2,29.65,WNW,289,8.0,8.0,84,0.00,,OVC012,0.00,VWS V14.01,2013-12-05 04:01:00,
2013-12-04 22:06:00,45.6,41.0,29.65,NNW,327,4.0,9.0,84,0.00,,OVC012,0.00,VWS V14.01,2013-12-05 04:06:00,
2013-12-04 22:11:00,45.5,41.0,29.65,WNW,285,3.0,12.0,84,0.00,,OVC012,0.00,VWS V14.01,2013-12-05 04:11:00,
2013-12-04 22:16:00,45.3,40.8,29.66,West,281,4.0,12.0,84,0.00,,OVC012,0.00,VWS V14.01,2013-12-05 04:16:00,
2013-12-04 22:21:00,45.2,40.7,29.66,NW,313,2.0,12.0,84,0.00,,OVC012,0.00,VWS V14.01,2013-12-05 04:21:00,
2013-12-04 22:26:00,45.1,40.6,29.66,WNW,288,2.0,12.0,84,0.00,,OVC012,0.00,VWS V14.01,2013-12-05 04:26:00,
2013-12-04 22:30:00,45.1,40.6,29.66,NW,319,0.0,12.0,84,0.00,,CLR,0.00,VWS V14.01,2013-12-05 04:30:00,
2013-12-04 22:32:00,45.0,40.8,29.67,WNW,290,6.0,8.0,85,0.00,,OVC012,0.00,VWS V14.01,2013-12-05 04:32:00,
2013-12-04 22:37:00,45.0,40.8,29.68,NNW,332,4.0,11.0,85,0.00,,OVC012,0.00,VWS V14.01,2013-12-05 04:37:00,
2013-12-04 22:42:00,44.9,40.7,29.68,North,355,7.0,11.0,85,0.00,,OVC014,0.00,VWS V14.01,2013-12-05 04:42:00,
2013-12-04 22:47:00,44.7,40.5,29.68,NW,325,4.0,11.0,85,0.00,,OVC014,0.00,VWS V14.01,2013-12-05 04:47:00,
2013-12-04 22:52:00,44.6,40.1,29.68,NW,311,3.0,12.0,84,0.00,,OVC014,0.00,VWS V14.01,2013-12-05 04:52:00,
2013-12-04 22:57:00,44.3,39.8,29.68,NW,309,6.0,12.0,84,0.00,,OVC014,0.00,VWS V14.01,2013-12-05 04:57:00,
2013-12-04 23:00:00,44.3,39.8,29.69,NW,323,4.0,12.0,84,0.00,,CLR,0.00,VWS V14.01,2013-12-05 05:00:00,
2013-12-04 23:01:00,44.2,39.7,29.69,WNW,300,2.0,7.0,84,0.00,,OVC014,0.00,VWS V14.01,2013-12-05 05:01:00,
2013-12-04 23:02:00,44.2,39.7,29.69,WNW,300,5.0,8.0,84,0.00,,OVC014,0.00,VWS V14.01,2013-12-05 05:02:00,
2013-12-04 23:04:00,44.2,39.7,29.69,West,274,2.0,9.0,84,0.00,,OVC014,0.00,VWS V14.01,2013-12-05 05:04:00,
2013-12-04 23:09:00,44.1,39.6,29.70,NW,309,3.0,9.0,84,0.00,,OVC014,0.00,VWS V14.01,2013-12-05 05:09:00,
2013-12-04 23:14:00,44.0,39.2,29.69,WNW,293,4.0,9.0,83,0.00,,OVC014,0.00,VWS V14.01,2013-12-05 05:14:00,
2013-12-04 23:19:00,43.8,39.0,29.69,NNW,328,2.0,9.0,83,0.00,,OVC014,0.00,VWS V14.01,2013-12-05 05:19:00,
2013-12-04 23:24:00,43.6,39.1,29.69,WNW,300,1.0,10.0,84,0.00,,OVC014,0.00,VWS V14.01,2013-12-05 05:24:00,
2013-12-04 23:29:00,43.5,39.0,29.69,WNW,302,9.0,11.0,84,0.00,,OVC014,0.00,VWS V14.01,2013-12-05 05:29:00,
2013-12-04 23:30:00,43.5,39.0,29.69,NW,319,11.0,11.0,84,0.00,,CLR,0.00,VWS V14.01,2013-12-05 05:30:00,
2013-12-04 23:34:00,43.3,38.8,29.70,NNW,327,7.0,11.0,84,0.00,,OVC014,0.00,VWS V14.01,2013-12-05 05:34:00,
2013-12-04 23:39:00,43.2,38.7,29.70,West,272,3.0,11.0,84,0.00,,OVC014,0.00,VWS V14.01,2013-12-05 05:39:00,
2013-12-04 23:44:00,43.1,38.6,29.71,West,273,3.0,11.0,84,0.00,,OVC014,0.00,VWS V14.01,2013-12-05 05:44:00,
2013-12-04 23:50:00,43.0,38.5,29.71,NW,311,2.0,11.0,84,0.00,,OVC014,0.00,VWS V14.01,2013-12-05 05:50:00,
2013-12-04 23:55:00,42.9,38.4,29.71,WNW,301,5.0,11.0,84,0.00,,OVC014,0.00,VWS V14.01,2013-12-05 05:55:00,